Time;durP1;ratioP1;P1;durP2;ratioP2;P2;SDS_P1;SDS_P2;PMS_P1;PMS_P2;Temp;Humidity;BMP_temperature;BMP_pressure;BME280_temperature;BME280_humidity;BME280_pressure;Samples;Min_cycle;Max_cycle;Signal;HPM_P1;HPM_P2
2023/09/22 00:00:28;;;;;;;77.30;45.53;;;27.60;99.90;;;;;;5101278;28;20031;-67
2023/09/22 00:02:55;;;;;;;69.35;41.35;;;27.70;99.90;;;;;;5094301;28;20058;-66
2023/09/22 00:05:23;;;;;;;69.78;41.25;;;27.70;99.90;;;;;;5094400;28;20024;-67
2023/09/22 00:07:50;;;;;;;67.70;38.72;;;27.70;99.90;;;;;;5094185;28;20044;-68
2023/09/22 00:10:17;;;;;;;72.25;37.95;;;27.80;99.90;;;;;;5094320;28;20481;-66
2023/09/22 00:12:44;;;;;;;62.10;36.97;;;27.80;99.90;;;;;;5093464;28;20020;-65
2023/09/22 00:15:10;;;;;;;77.50;38.40;;;28.00;99.90;;;;;;5094133;28;20028;-66
2023/09/22 00:17:37;;;;;;;61.97;37.30;;;28.00;99.90;;;;;;5094325;28;20486;-67
2023/09/22 00:20:08;;;;;;;68.75;37.45;;;28.00;99.90;;;;;;5093991;28;20392;-67
2023/09/22 00:22:35;;;;;;;54.83;34.17;;;28.00;99.90;;;;;;5094154;28;20035;-65
2023/09/22 00:25:02;;;;;;;58.30;34.88;;;28.00;99.90;;;;;;5094018;28;20028;-67
2023/09/22 00:27:28;;;;;;;62.95;34.53;;;28.00;99.90;;;;;;5093906;28;20411;-67
2023/09/22 00:29:55;;;;;;;57.28;33.38;;;28.10;99.90;;;;;;5093937;28;20020;-66
2023/09/22 00:32:21;;;;;;;54.42;33.78;;;28.20;99.90;;;;;;5093902;28;20039;-66
2023/09/22 00:34:48;;;;;;;54.88;33.70;;;28.20;99.90;;;;;;5093867;28;20028;-66
2023/09/22 00:37:15;;;;;;;53.40;31.77;;;28.30;99.90;;;;;;5093813;28;20058;-65
2023/09/22 00:39:41;;;;;;;55.40;31.17;;;28.30;99.90;;;;;;5093697;28;20062;-66
2023/09/22 00:42:09;;;;;;;51.70;31.77;;;28.40;99.90;;;;;;5093929;28;20384;-67
2023/09/22 00:44:36;;;;;;;47.85;31.55;;;28.30;99.90;;;;;;5093779;28;20024;-67
2023/09/22 00:47:06;;;;;;;51.17;34.10;;;28.30;99.90;;;;;;5093441;28;20048;-66
2023/09/22 00:49:33;;;;;;;53.08;31.75;;;28.40;99.90;;;;;;5093403;28;20058;-66
2023/09/22 00:52:00;;;;;;;55.35;31.95;;;28.40;99.90;;;;;;5093414;28;20053;-66
2023/09/22 00:54:26;;;;;;;48.55;30.33;;;28.50;99.90;;;;;;5093441;28;20055;-67
2023/09/22 00:56:53;;;;;;;50.92;32.47;;;28.50;99.90;;;;;;5093548;28;20069;-67
2023/09/22 00:59:20;;;;;;;68.32;43.28;;;28.60;99.90;;;;;;5093324;28;20529;-68
2023/09/22 01:01:47;;;;;;;58.50;33.85;;;28.60;99.90;;;;;;5093359;28;20107;-70
2023/09/22 01:04:14;;;;;;;62.70;37.80;;;28.60;99.90;;;;;;5093417;28;20016;-71
2023/09/22 01:06:44;;;;;;;70.18;37.60;;;28.70;99.90;;;;;;5093555;28;20024;-71
2023/09/22 01:09:10;;;;;;;61.63;35.55;;;28.70;99.90;;;;;;5093368;28;20099;-66
2023/09/22 01:11:37;;;;;;;46.97;28.90;;;28.70;99.90;;;;;;5093251;28;20036;-65
2023/09/22 01:14:04;;;;;;;50.78;28.17;;;28.80;99.90;;;;;;5093340;28;20053;-67
2023/09/22 01:16:31;;;;;;;58.35;30.08;;;28.80;99.90;;;;;;5103191;28;20027;-66
2023/09/22 01:19:00;;;;;;;50.35;29.05;;;28.80;99.90;;;;;;5109047;28;20153;-67
2023/09/22 01:21:30;;;;;;;47.85;29.63;;;28.90;99.90;;;;;;5110614;28;20036;-68
2023/09/22 01:23:57;;;;;;;42.42;28.15;;;29.00;99.90;;;;;;5093744;28;20024;-66
2023/09/22 01:26:24;;;;;;;47.63;29.65;;;29.10;99.90;;;;;;5110794;28;20023;-66
2023/09/22 01:28:50;;;;;;;47.90;31.17;;;29.20;99.90;;;;;;5117858;28;20026;-66
2023/09/22 01:31:17;;;;;;;43.97;28.30;;;29.30;99.90;;;;;;5117543;28;20371;-68
2023/09/22 01:33:46;;;;;;;44.00;26.73;;;29.40;99.90;;;;;;5117636;28;20476;-66
2023/09/22 01:36:15;;;;;;;39.00;24.85;;;29.40;99.90;;;;;;5117659;28;20024;-66
2023/09/22 01:38:42;;;;;;;44.47;26.95;;;29.50;99.90;;;;;;5117528;28;20028;-68
2023/09/22 01:41:11;;;;;;;44.33;26.70;;;29.60;99.90;;;;;;5111063;28;20437;-67
2023/09/22 01:43:38;;;;;;;41.22;24.35;;;29.60;99.90;;;;;;5097080;28;20020;-68
2023/09/22 01:46:06;;;;;;;32.50;22.30;;;29.70;99.90;;;;;;5097053;28;20032;-68
2023/09/22 01:48:33;;;;;;;37.17;23.55;;;29.70;99.90;;;;;;5096904;28;20060;-68
2023/09/22 01:51:03;;;;;;;42.45;24.55;;;29.80;99.90;;;;;;5096450;28;20052;-67
2023/09/22 01:53:30;;;;;;;37.50;24.17;;;29.90;99.90;;;;;;5096763;28;20028;-67
2023/09/22 01:55:57;;;;;;;42.28;24.20;;;29.90;99.90;;;;;;5097020;28;20035;-67
2023/09/22 01:58:23;;;;;;;31.52;19.40;;;30.00;99.90;;;;;;5096693;28;20470;-68
2023/09/22 02:00:51;;;;;;;30.70;19.58;;;30.20;99.90;;;;;;5096738;28;20028;-66
2023/09/22 02:03:18;;;;;;;29.70;18.55;;;30.30;99.90;;;;;;5096897;28;20097;-68
2023/09/22 02:05:45;;;;;;;36.15;19.42;;;30.30;99.90;;;;;;5096494;28;20031;-68
2023/09/22 02:08:11;;;;;;;29.85;18.90;;;30.40;99.90;;;;;;5096537;28;20039;-67
2023/09/22 02:10:38;;;;;;;29.60;17.98;;;30.50;99.90;;;;;;5096544;28;20036;-66
2023/09/22 02:13:05;;;;;;;23.77;16.45;;;30.50;99.90;;;;;;5096349;28;20020;-66
2023/09/22 02:15:32;;;;;;;31.98;18.48;;;30.60;99.90;;;;;;5096776;28;20533;-66
2023/09/22 02:17:58;;;;;;;23.85;17.63;;;30.70;99.90;;;;;;5096474;28;20028;-66
2023/09/22 02:20:25;;;;;;;27.58;17.80;;;30.80;99.90;;;;;;5096537;28;20024;-67
2023/09/22 02:22:55;;;;;;;23.15;16.67;;;30.80;99.90;;;;;;5096211;28;20040;-67
2023/09/22 02:25:23;;;;;;;32.45;18.40;;;30.80;99.90;;;;;;5096111;28;20383;-67
2023/09/22 02:27:53;;;;;;;26.40;17.40;;;30.90;99.90;;;;;;5096064;28;20108;-67
2023/09/22 02:30:21;;;;;;;26.67;17.13;;;31.00;99.90;;;;;;5096072;28;20024;-67
2023/09/22 02:32:49;;;;;;;30.23;17.90;;;31.10;99.90;;;;;;5095951;28;20028;-67
2023/09/22 02:35:18;;;;;;;22.98;16.35;;;31.20;99.90;;;;;;5095574;28;20395;-67
2023/09/22 02:37:46;;;;;;;29.98;17.10;;;31.20;99.90;;;;;;5095849;28;20444;-67
2023/09/22 02:40:15;;;;;;;29.80;16.52;;;31.20;99.90;;;;;;5095898;28;20024;-67
2023/09/22 02:42:43;;;;;;;99.93;58.75;;;31.30;99.90;;;;;;5095656;28;20032;-67
2023/09/22 02:45:10;;;;;;;34.33;21.50;;;31.30;99.90;;;;;;5095707;28;20028;-67
2023/09/22 02:47:38;;;;;;;32.03;16.88;;;31.50;99.90;;;;;;5095865;28;20028;-67
2023/09/22 02:50:09;;;;;;;27.13;17.38;;;31.40;99.90;;;;;;5095386;28;20104;-66
2023/09/22 02:52:38;;;;;;;31.85;19.08;;;31.50;99.90;;;;;;5095925;28;20035;-67
2023/09/22 02:55:09;;;;;;;28.55;19.30;;;31.60;99.90;;;;;;5095706;28;20146;-67
2023/09/22 02:57:36;;;;;;;27.08;19.30;;;31.70;99.90;;;;;;5095569;28;20069;-67
2023/09/22 03:00:14;;;;;;;32.83;19.02;;;31.80;99.90;;;;;;5095415;28;20527;-67
2023/09/22 03:02:41;;;;;;;29.23;17.90;;;31.90;99.90;;;;;;5095240;28;20052;-67
2023/09/22 03:05:09;;;;;;;26.48;16.02;;;32.00;99.90;;;;;;5095394;28;20476;-66
2023/09/22 03:07:35;;;;;;;23.55;16.60;;;32.00;99.90;;;;;;5095304;28;20082;-65
2023/09/22 03:10:06;;;;;;;19.30;14.88;;;32.10;99.90;;;;;;5095473;28;20362;-67
2023/09/22 03:12:34;;;;;;;25.95;16.83;;;32.20;99.90;;;;;;5095219;28;20031;-66
2023/09/22 03:15:01;;;;;;;29.25;17.42;;;32.30;99.90;;;;;;5095413;28;20020;-66
2023/09/22 03:17:27;;;;;;;30.20;19.90;;;32.40;99.90;;;;;;5106655;28;20491;-66
2023/09/22 03:19:54;;;;;;;26.23;17.00;;;32.50;99.90;;;;;;5095154;28;20032;-67
2023/09/22 03:22:20;;;;;;;23.35;15.55;;;32.50;99.90;;;;;;5102434;27;20035;-65
2023/09/22 03:24:47;;;;;;;23.70;17.02;;;32.50;99.90;;;;;;5096982;28;20027;-65
2023/09/22 03:27:13;;;;;;;27.10;19.08;;;32.60;99.90;;;;;;5105880;28;20024;-65
2023/09/22 03:29:40;;;;;;;29.67;19.65;;;32.70;99.90;;;;;;5103451;28;20020;-70
2023/09/22 03:32:07;;;;;;;25.15;17.30;;;32.80;99.90;;;;;;5105215;28;20031;-71
2023/09/22 03:34:33;;;;;;;22.02;16.00;;;32.80;99.90;;;;;;5105032;28;20008;-69
2023/09/22 03:37:00;;;;;;;21.85;15.57;;;32.80;99.90;;;;;;5103864;28;20028;-70
2023/09/22 03:39:28;;;;;;;22.20;15.02;;;32.90;99.90;;;;;;5105314;28;20019;-71
2023/09/22 03:41:54;;;;;;;22.55;16.15;;;32.90;99.60;;;;;;5105216;28;20020;-70
2023/09/22 03:44:22;;;;;;;23.42;15.93;;;33.00;99.20;;;;;;5105759;28;20027;-68
2023/09/22 03:46:48;;;;;;;28.17;15.10;;;33.10;99.00;;;;;;5104311;28;20077;-66
2023/09/22 03:49:15;;;;;;;23.52;14.82;;;33.00;99.90;;;;;;5103312;28;20470;-67
2023/09/22 03:51:41;;;;;;;24.05;15.27;;;33.20;99.50;;;;;;5105437;28;20069;-67
2023/09/22 03:54:08;;;;;;;20.60;14.60;;;33.20;99.60;;;;;;5104080;28;20020;-66
2023/09/22 03:56:38;;;;;;;19.77;15.52;;;33.20;99.90;;;;;;5103521;28;20043;-65
2023/09/22 03:59:05;;;;;;;24.27;14.80;;;33.30;98.50;;;;;;5105690;28;20020;-66
2023/09/22 04:01:32;;;;;;;23.85;15.32;;;33.40;98.70;;;;;;5105306;28;20024;-66
2023/09/22 04:03:58;;;;;;;26.85;15.85;;;33.50;98.60;;;;;;5120306;22;20114;-65
2023/09/22 04:06:25;;;;;;;21.58;16.48;;;33.50;98.70;;;;;;5082412;28;20037;-65
2023/09/22 04:08:52;;;;;;;22.52;15.57;;;33.60;98.60;;;;;;5074212;28;20108;-66
2023/09/22 04:11:18;;;;;;;29.73;15.07;;;33.70;98.30;;;;;;5074233;28;20033;-65
2023/09/22 04:13:45;;;;;;;25.33;15.75;;;33.70;98.60;;;;;;5074624;28;20040;-64
2023/09/22 04:16:11;;;;;;;31.98;19.08;;;33.70;97.90;;;;;;5074105;28;20052;-65
2023/09/22 04:18:38;;;;;;;26.83;17.05;;;33.90;97.20;;;;;;5074502;28;20097;-66
2023/09/22 04:21:07;;;;;;;25.52;16.13;;;34.00;96.70;;;;;;5074061;28;20021;-67
2023/09/22 04:23:35;;;;;;;21.67;15.52;;;34.10;97.00;;;;;;5073902;28;20073;-65
2023/09/22 04:26:09;;;;;;;26.83;17.42;;;34.00;96.40;;;;;;5079185;28;20021;-67
2023/09/22 04:28:37;;;;;;;31.30;16.42;;;34.00;95.50;;;;;;5081726;28;20028;-65
2023/09/22 04:31:04;;;;;;;28.45;18.65;;;34.10;95.80;;;;;;5084473;28;20052;-71
2023/09/22 04:33:30;;;;;;;22.38;16.67;;;34.20;95.80;;;;;;5082928;28;20024;-70
2023/09/22 04:35:57;;;;;;;29.15;17.25;;;34.20;95.80;;;;;;5079874;28;20063;-70
2023/09/22 04:38:23;;;;;;;37.00;18.38;;;34.20;95.00;;;;;;5080661;28;20071;-70
2023/09/22 04:40:57;;;;;;;25.73;18.73;;;34.30;95.70;;;;;;5084708;28;20384;-72
2023/09/22 04:43:24;;;;;;;30.15;19.17;;;34.30;95.60;;;;;;5079725;28;20020;-71
2023/09/22 04:45:50;;;;;;;23.35;17.33;;;34.20;94.70;;;;;;5087450;28;20059;-65
2023/09/22 04:48:17;;;;;;;29.23;20.30;;;34.10;95.20;;;;;;5093399;28;20039;-64
2023/09/22 04:50:43;;;;;;;39.53;24.55;;;34.20;95.00;;;;;;5090298;28;20025;-64
2023/09/22 04:53:10;;;;;;;57.22;34.28;;;34.30;94.60;;;;;;5081956;28;20059;-65
2023/09/22 04:55:37;;;;;;;62.78;38.55;;;34.30;93.90;;;;;;5081941;28;20392;-65
2023/09/22 04:58:05;;;;;;;53.17;35.65;;;34.50;93.80;;;;;;5080821;28;20020;-67
2023/09/22 05:00:34;;;;;;;52.08;33.47;;;34.50;94.10;;;;;;5082687;28;20028;-70
2023/09/22 05:03:01;;;;;;;51.65;33.20;;;34.40;94.60;;;;;;5090469;28;20024;-71
2023/09/22 05:05:28;;;;;;;54.92;35.13;;;34.40;92.70;;;;;;5090966;28;20036;-66
2023/09/22 05:07:55;;;;;;;45.83;31.95;;;34.50;93.70;;;;;;5082650;28;20020;-66
2023/09/22 05:10:21;;;;;;;38.40;26.48;;;34.50;93.20;;;;;;5082036;28;20028;-67
2023/09/22 05:12:51;;;;;;;34.17;25.38;;;34.60;93.50;;;;;;5079161;28;20028;-66
2023/09/22 05:15:18;;;;;;;37.67;25.73;;;34.70;92.40;;;;;;5078854;28;20465;-68
2023/09/22 05:17:45;;;;;;;38.38;23.73;;;34.60;93.00;;;;;;5080694;28;20030;-71
2023/09/22 05:20:15;;;;;;;38.20;24.10;;;34.50;92.90;;;;;;5083430;28;20020;-71
2023/09/22 05:22:42;;;;;;;60.22;39.03;;;34.40;93.00;;;;;;5083242;28;20024;-72
2023/09/22 05:25:13;;;;;;;64.60;45.88;;;34.40;92.60;;;;;;5078764;28;20056;-70
2023/09/22 05:27:42;;;;;;;72.35;48.53;;;34.50;92.10;;;;;;5082101;28;20016;-71
2023/09/22 05:30:10;;;;;;;62.33;42.28;;;34.70;92.00;;;;;;5078978;28;20552;-72
2023/09/22 05:32:37;;;;;;;64.97;47.00;;;34.70;92.20;;;;;;5082690;28;20028;-72
2023/09/22 05:35:04;;;;;;;58.40;40.80;;;34.50;92.00;;;;;;5081641;28;20395;-70
2023/09/22 05:37:31;;;;;;;55.13;39.60;;;34.50;92.40;;;;;;5081615;28;20036;-70
2023/09/22 05:39:57;;;;;;;53.30;36.83;;;34.50;92.10;;;;;;5082361;28;20024;-65
2023/09/22 05:42:24;;;;;;;59.65;41.35;;;34.50;92.50;;;;;;5083495;28;20477;-65
2023/09/22 05:44:50;;;;;;;63.28;45.95;;;34.60;91.50;;;;;;5081725;28;20064;-65
2023/09/22 05:47:18;;;;;;;69.68;50.50;;;34.60;91.40;;;;;;5083324;28;20024;-64
2023/09/22 05:49:45;;;;;;;58.85;44.03;;;34.70;90.50;;;;;;5081101;28;20028;-65
2023/09/22 05:52:12;;;;;;;51.22;37.78;;;34.70;91.70;;;;;;5082364;28;20522;-66
2023/09/22 05:54:38;;;;;;;60.35;40.75;;;34.80;91.90;;;;;;5081643;28;20028;-69
2023/09/22 05:57:06;;;;;;;61.70;41.30;;;34.80;91.20;;;;;;5082191;28;20031;-69
2023/09/22 05:59:33;;;;;;;70.35;50.35;;;34.80;91.30;;;;;;5082711;28;20392;-67
2023/09/22 06:02:00;;;;;;;74.45;52.33;;;34.90;90.00;;;;;;5081189;28;20032;-69
2023/09/22 06:04:29;;;;;;;86.25;56.20;;;35.00;89.70;;;;;;5082596;28;20123;-69
2023/09/22 06:06:56;;;;;;;69.55;50.80;;;35.00;89.10;;;;;;5083079;28;20016;-69
2023/09/22 06:09:23;;;;;;;70.40;48.45;;;35.00;89.50;;;;;;5080450;28;20070;-67
2023/09/22 06:11:49;;;;;;;71.97;50.70;;;34.90;89.90;;;;;;5085170;28;20469;-68
2023/09/22 06:14:16;;;;;;;61.65;41.90;;;34.90;89.70;;;;;;5085240;28;20017;-69
2023/09/22 06:16:43;;;;;;;55.13;36.92;;;35.00;90.60;;;;;;5065886;28;20381;-67
2023/09/22 06:19:10;;;;;;;71.85;52.25;;;35.00;90.60;;;;;;5084854;28;20024;-68
2023/09/22 06:21:38;;;;;;;79.80;58.47;;;35.00;90.30;;;;;;5084129;28;20077;-68
2023/09/22 06:24:07;;;;;;;77.65;57.17;;;34.90;90.10;;;;;;5084470;28;20046;-67
2023/09/22 06:26:33;;;;;;;54.42;36.25;;;35.00;90.50;;;;;;5084490;28;20048;-69
2023/09/22 06:29:00;;;;;;;47.30;33.72;;;35.00;90.10;;;;;;5084653;28;20008;-71
2023/09/22 06:31:26;;;;;;;43.13;30.25;;;35.00;90.70;;;;;;5086025;28;20495;-67
2023/09/22 06:33:53;;;;;;;47.33;31.70;;;35.00;90.40;;;;;;5084133;28;20020;-68
2023/09/22 06:36:20;;;;;;;53.47;35.08;;;35.00;90.50;;;;;;5083838;28;20024;-67
2023/09/22 06:38:46;;;;;;;42.65;32.03;;;35.10;89.10;;;;;;5081094;28;20134;-66
2023/09/22 06:41:18;;;;;;;43.15;33.80;;;35.10;90.60;;;;;;5085441;28;20019;-70
2023/09/22 06:43:47;;;;;;;94.95;68.03;;;35.10;89.40;;;;;;5084421;28;20535;-70
2023/09/22 06:46:15;;;;;;;91.75;66.95;;;35.10;89.20;;;;;;5083432;28;20016;-66
2023/09/22 06:48:42;;;;;;;88.15;61.10;;;35.10;88.30;;;;;;5083615;28;20032;-67
2023/09/22 06:51:18;;;;;;;57.67;42.53;;;35.10;86.90;;;;;;5083122;28;20058;-65
2023/09/22 06:53:44;;;;;;;74.47;50.80;;;35.20;86.80;;;;;;5075778;28;20029;-67
2023/09/22 06:56:11;;;;;;;88.88;62.78;;;35.10;87.50;;;;;;5080842;28;20043;-68
2023/09/22 06:58:40;;;;;;;71.70;51.50;;;35.20;88.00;;;;;;5086091;28;20017;-71
2023/09/22 07:01:14;;;;;;;69.28;50.70;;;35.30;86.20;;;;;;5082227;28;20021;-68
2023/09/22 07:03:42;;;;;;;76.88;55.38;;;35.30;87.90;;;;;;5085386;28;20024;-67
2023/09/22 07:06:13;;;;;;;76.93;57.95;;;35.30;87.90;;;;;;5084111;28;20399;-70
2023/09/22 07:08:39;;;;;;;79.95;58.00;;;35.20;87.70;;;;;;5086041;28;20101;-68
2023/09/22 07:11:08;;;;;;;82.50;62.22;;;35.20;87.20;;;;;;5065960;28;20409;-69
2023/09/22 07:13:37;;;;;;;80.72;65.13;;;35.30;87.30;;;;;;5082971;28;20114;-69
2023/09/22 07:16:04;;;;;;;83.80;60.75;;;35.30;86.40;;;;;;5083993;28;20020;-67
2023/09/22 07:18:30;;;;;;;77.50;58.60;;;35.30;86.40;;;;;;5092363;28;20052;-67
2023/09/22 07:20:57;;;;;;;79.72;64.75;;;35.30;87.20;;;;;;5095077;28;20024;-68
2023/09/22 07:23:24;;;;;;;84.47;67.03;;;35.30;84.70;;;;;;5094690;28;20024;-69
2023/09/22 07:26:01;;;;;;;83.68;65.85;;;35.30;85.80;;;;;;5094860;28;20024;-68
2023/09/22 07:28:29;;;;;;;85.93;68.03;;;35.40;85.60;;;;;;5091869;28;20028;-72
2023/09/22 07:30:55;;;;;;;82.30;66.15;;;35.40;83.40;;;;;;5080743;28;20172;-72
2023/09/22 07:33:30;;;;;;;86.55;65.70;;;35.50;84.50;;;;;;5083624;28;20113;-72
2023/09/22 07:35:59;;;;;;;74.22;61.20;;;35.70;83.80;;;;;;5083197;28;20055;-72
2023/09/22 07:38:28;;;;;;;74.18;61.33;;;35.70;83.30;;;;;;5084289;28;20016;-72
2023/09/22 07:40:56;;;;;;;79.53;65.75;;;35.70;84.20;;;;;;5085162;28;20485;-73
2023/09/22 07:43:28;;;;;;;84.78;70.45;;;35.70;82.60;;;;;;5089411;28;20035;-73
2023/09/22 07:45:55;;;;;;;93.57;77.13;;;35.70;82.70;;;;;;5094722;28;20031;-73
2023/09/22 07:48:22;;;;;;;95.70;76.82;;;35.70;82.20;;;;;;5093125;28;20420;-72
2023/09/22 07:50:49;;;;;;;90.47;75.47;;;35.70;81.70;;;;;;5094048;28;20024;-73
2023/09/22 07:53:15;;;;;;;93.15;76.90;;;35.70;82.00;;;;;;5092747;28;20027;-73
2023/09/22 07:55:42;;;;;;;94.35;75.80;;;35.70;81.30;;;;;;5094238;28;20469;-73
2023/09/22 07:58:09;;;;;;;94.95;74.80;;;35.70;79.40;;;;;;5094483;28;20423;-73
2023/09/22 08:00:38;;;;;;;88.72;71.85;;;35.80;80.00;;;;;;5094166;28;20070;-73
2023/09/22 08:03:05;;;;;;;82.05;68.20;;;35.70;81.50;;;;;;5094305;28;20025;-73
2023/09/22 08:05:31;;;;;;;87.20;71.38;;;35.60;80.80;;;;;;5088055;28;20040;-73
2023/09/22 08:07:58;;;;;;;88.18;69.80;;;35.50;81.80;;;;;;5080167;28;20017;-72
2023/09/22 08:10:25;;;;;;;87.20;65.32;;;35.50;82.30;;;;;;5083817;28;20024;-72
2023/09/22 08:12:53;;;;;;;70.22;57.88;;;35.60;82.90;;;;;;5090596;28;20028;-73
2023/09/22 08:15:21;;;;;;;72.30;58.25;;;35.60;80.30;;;;;;5093856;28;20020;-73
2023/09/22 08:17:49;;;;;;;85.70;65.75;;;35.60;82.00;;;;;;5091410;28;20060;-72
2023/09/22 08:20:17;;;;;;;80.07;63.83;;;35.70;80.70;;;;;;5084829;28;20026;-73
2023/09/22 08:22:46;;;;;;;84.60;66.25;;;35.80;79.70;;;;;;5083964;28;20024;-69
2023/09/22 08:25:13;;;;;;;79.10;62.15;;;35.80;79.30;;;;;;5081262;28;20039;-68
2023/09/22 08:27:40;;;;;;;69.78;55.95;;;35.90;79.20;;;;;;5083220;28;20078;-69
2023/09/22 08:30:11;;;;;;;74.07;57.80;;;35.90;80.60;;;;;;5081923;28;20029;-68
2023/09/22 08:32:39;;;;;;;63.88;54.63;;;35.90;80.70;;;;;;5080843;28;20469;-69
2023/09/22 08:35:10;;;;;;;65.60;54.95;;;35.80;81.00;;;;;;5072863;28;20028;-68
2023/09/22 08:37:40;;;;;;;62.88;51.97;;;35.80;80.70;;;;;;5073418;28;20078;-68
2023/09/22 08:40:09;;;;;;;68.75;53.00;;;35.80;81.10;;;;;;5073375;28;20051;-68
2023/09/22 08:42:38;;;;;;;82.65;65.18;;;35.80;81.60;;;;;;5073238;28;20040;-68
2023/09/22 08:45:07;;;;;;;84.70;67.32;;;35.80;81.80;;;;;;5073200;28;20023;-68
2023/09/22 08:47:45;;;;;;;90.75;69.97;;;35.80;79.10;;;;;;5073411;28;20123;-68
2023/09/22 08:50:14;;;;;;;80.45;64.07;;;35.80;80.90;;;;;;5073381;28;20032;-70
2023/09/22 08:52:44;;;;;;;73.85;60.80;;;35.80;81.00;;;;;;5072245;28;20066;-69
2023/09/22 08:55:14;;;;;;;75.68;60.95;;;35.80;79.90;;;;;;5081436;28;20041;-69
2023/09/22 08:57:44;;;;;;;70.80;54.58;;;35.70;79.90;;;;;;5081994;28;20061;-70
2023/09/22 09:00:20;;;;;;;70.13;51.25;;;35.70;79.20;;;;;;5077920;28;20066;-66
2023/09/22 09:02:48;;;;;;;69.68;49.97;;;35.70;78.70;;;;;;5073180;28;20021;-69
2023/09/22 09:05:19;;;;;;;62.40;46.33;;;35.60;79.80;;;;;;5073091;28;20531;-69
2023/09/22 09:07:47;;;;;;;59.95;42.58;;;35.70;79.80;;;;;;5072982;28;20116;-69
2023/09/22 09:10:27;;;;;;;52.58;40.60;;;35.70;80.20;;;;;;5073076;28;20037;-66
2023/09/22 09:12:55;;;;;;;53.75;39.35;;;35.60;81.10;;;;;;5081681;28;20028;-65
2023/09/22 09:15:26;;;;;;;65.03;42.38;;;35.60;81.40;;;;;;5082944;28;20112;-65
2023/09/22 09:18:09;;;;;;;58.80;43.15;;;35.70;81.70;;;;;;5080392;28;20119;-70
2023/09/22 09:20:40;;;;;;;70.72;43.35;;;35.70;80.90;;;;;;5080759;28;20052;-66
2023/09/22 09:23:20;;;;;;;65.00;44.60;;;35.70;81.40;;;;;;5081463;28;20027;-65
2023/09/22 09:25:49;;;;;;;71.85;44.67;;;35.70;80.80;;;;;;5081220;28;20069;-64
2023/09/22 09:28:18;;;;;;;59.15;42.53;;;35.70;80.20;;;;;;5081726;28;20107;-64
2023/09/22 09:30:57;;;;;;;50.70;39.13;;;35.60;81.20;;;;;;5083467;28;20095;-65
2023/09/22 09:33:33;;;;;;;65.30;44.50;;;35.60;80.40;;;;;;5083242;28;20055;-65
2023/09/22 09:36:13;;;;;;;63.85;46.00;;;35.60;79.80;;;;;;5083138;28;20008;-65
2023/09/22 09:38:42;;;;;;;63.72;42.33;;;35.70;80.60;;;;;;5072616;28;20035;-66
2023/09/22 09:41:11;;;;;;;59.42;41.95;;;35.60;81.80;;;;;;5071120;28;20021;-65
2023/09/22 09:43:46;;;;;;;67.32;46.25;;;35.60;80.90;;;;;;5052630;28;20029;-66
2023/09/22 09:46:16;;;;;;;58.72;44.00;;;35.60;80.20;;;;;;5055229;28;20124;-67
2023/09/22 09:48:44;;;;;;;58.70;46.47;;;35.50;81.20;;;;;;5063535;28;20289;-65
2023/09/22 09:51:14;;;;;;;68.75;49.70;;;35.50;80.20;;;;;;5076484;28;20098;-63
2023/09/22 09:53:46;;;;;;;68.35;49.53;;;35.50;81.70;;;;;;5079159;28;20028;-62
2023/09/22 09:56:14;;;;;;;61.42;45.90;;;35.50;81.90;;;;;;5086026;28;20031;-63
2023/09/22 09:58:42;;;;;;;66.70;44.88;;;35.40;81.70;;;;;;5087071;28;20073;-64
2023/09/22 10:01:09;;;;;;;68.53;48.25;;;35.40;81.60;;;;;;5089255;28;20062;-65
2023/09/22 10:03:39;;;;;;;73.78;48.83;;;35.40;81.50;;;;;;5097170;28;20035;-64
2023/09/22 10:06:09;;;;;;;76.50;51.90;;;35.40;81.40;;;;;;5093047;28;20048;-65
2023/09/22 10:08:39;;;;;;;67.57;49.03;;;35.40;82.00;;;;;;5065138;28;20031;-65
2023/09/22 10:11:09;;;;;;;67.45;47.58;;;35.30;80.70;;;;;;5064877;28;20412;-66
2023/09/22 10:13:36;;;;;;;75.55;48.88;;;35.30;81.00;;;;;;5058381;28;20032;-66
2023/09/22 10:16:04;;;;;;;63.47;45.30;;;35.30;80.80;;;;;;5063556;28;20028;-65
2023/09/22 10:18:52;;;;;;;61.58;45.00;;;35.20;81.10;;;;;;5054888;28;20071;-66
2023/09/22 10:21:31;;;;;;;64.03;46.58;;;35.20;81.70;;;;;;5055402;28;20029;-66
2023/09/22 10:24:22;;;;;;;63.45;48.65;;;35.20;83.70;;;;;;5064784;28;20393;-67
2023/09/22 10:27:00;;;;;;;68.63;49.50;;;35.20;82.70;;;;;;5055437;28;20025;-65
2023/09/22 10:29:39;;;;;;;71.13;49.45;;;35.10;82.80;;;;;;5074856;28;20028;-66
2023/09/22 10:32:16;;;;;;;64.97;46.08;;;35.00;82.00;;;;;;5082907;28;20024;-65
2023/09/22 10:35:05;;;;;;;77.10;53.22;;;35.00;81.70;;;;;;5082450;28;20028;-65
2023/09/22 10:37:35;;;;;;;83.15;60.58;;;34.90;82.40;;;;;;5083008;28;20024;-67
2023/09/22 10:40:12;;;;;;;80.53;57.83;;;34.90;83.00;;;;;;5079425;28;20118;-68
2023/09/22 10:42:43;;;;;;;87.25;57.70;;;34.90;82.60;;;;;;5086686;28;20027;-68
2023/09/22 10:45:11;;;;;;;84.65;57.25;;;34.80;82.50;;;;;;5082312;28;20073;-68
2023/09/22 10:47:39;;;;;;;78.90;58.22;;;34.80;83.30;;;;;;5084839;28;20060;-68
2023/09/22 10:50:21;;;;;;;80.72;59.30;;;34.80;83.20;;;;;;5086241;28;20418;-67
2023/09/22 10:52:57;;;;;;;84.68;56.83;;;34.80;82.90;;;;;;5079732;28;20036;-68
2023/09/22 10:55:40;;;;;;;87.35;58.75;;;34.70;83.50;;;;;;5082903;28;20557;-68
2023/09/22 10:58:09;;;;;;;78.07;58.45;;;34.70;84.20;;;;;;5071609;28;20060;-68
2023/09/22 11:00:40;;;;;;;85.90;57.85;;;34.70;84.10;;;;;;5076754;28;20016;-67
2023/09/22 11:03:09;;;;;;;76.57;56.05;;;34.50;84.50;;;;;;5084138;28;20063;-67
2023/09/22 11:05:37;;;;;;;78.05;57.47;;;34.50;83.40;;;;;;5080556;28;20037;-67
2023/09/22 11:08:24;;;;;;;82.18;57.78;;;34.50;83.30;;;;;;5086988;28;20139;-66
2023/09/22 11:10:54;;;;;;;80.93;58.08;;;34.40;83.50;;;;;;5078797;28;20099;-68
2023/09/22 11:13:22;;;;;;;75.00;57.35;;;34.30;83.10;;;;;;5079823;28;20020;-68
2023/09/22 11:15:53;;;;;;;91.65;63.45;;;34.30;83.60;;;;;;5081900;28;20047;-69
2023/09/22 11:18:23;;;;;;;95.25;57.85;;;34.20;83.90;;;;;;5082913;28;20023;-68
2023/09/22 11:21:04;;;;;;;79.22;49.50;;;34.10;90.60;;;;;;5086355;28;20086;-68
2023/09/22 11:23:35;;;;;;;83.65;50.38;;;34.00;93.50;;;;;;5080048;28;20028;-67
2023/09/22 11:26:09;;;;;;;75.85;52.17;;;34.00;94.70;;;;;;5081777;28;20468;-68
2023/09/22 11:28:46;;;;;;;110.03;67.47;;;33.90;95.30;;;;;;5083182;28;20037;-69
2023/09/22 11:31:14;;;;;;;74.88;51.92;;;33.80;96.60;;;;;;5081384;28;20468;-67
2023/09/22 11:33:44;;;;;;;76.95;51.92;;;33.50;97.30;;;;;;5082724;28;20020;-68
2023/09/22 11:36:12;;;;;;;84.72;54.70;;;33.40;97.90;;;;;;5083916;28;20013;-68
2023/09/22 11:38:40;;;;;;;81.28;53.75;;;33.40;98.20;;;;;;5080841;28;20506;-68
2023/09/22 11:41:08;;;;;;;95.60;63.97;;;33.30;98.30;;;;;;5084003;28;20541;-67
2023/09/22 11:43:39;;;;;;;100.60;65.18;;;33.20;98.70;;;;;;5083741;28;20469;-68
2023/09/22 11:46:11;;;;;;;108.45;67.55;;;33.10;99.00;;;;;;5083247;28;20028;-68
2023/09/22 11:49:00;;;;;;;104.30;67.43;;;33.00;99.20;;;;;;5080379;28;20086;-68
2023/09/22 11:51:50;;;;;;;111.75;71.65;;;33.00;99.70;;;;;;5081373;28;20377;-71
2023/09/22 11:54:19;;;;;;;104.22;66.35;;;32.90;99.90;;;;;;5081917;28;20103;-68
2023/09/22 11:56:47;;;;;;;91.85;59.42;;;32.80;99.90;;;;;;5083824;28;20028;-68
2023/09/22 11:59:18;;;;;;;91.15;58.50;;;32.80;99.90;;;;;;5081284;28;20027;-68
2023/09/22 12:01:45;;;;;;;88.50;56.45;;;32.70;99.90;;;;;;5062432;28;20482;-66
2023/09/22 12:04:13;;;;;;;87.32;55.13;;;32.70;99.90;;;;;;5082791;28;20468;-64
2023/09/22 12:06:41;;;;;;;91.65;56.75;;;32.60;99.90;;;;;;5063034;28;20090;-64
2023/09/22 12:09:11;;;;;;;95.18;59.33;;;32.50;99.90;;;;;;5053163;28;20029;-65
2023/09/22 12:11:39;;;;;;;100.95;61.33;;;32.60;99.90;;;;;;5054208;28;20075;-64
2023/09/22 12:14:06;;;;;;;117.05;70.70;;;32.50;99.90;;;;;;5054213;28;20367;-66
2023/09/22 12:16:33;;;;;;;112.70;67.47;;;32.50;99.90;;;;;;5071038;28;20016;-66
2023/09/22 12:19:00;;;;;;;137.63;83.25;;;32.40;99.90;;;;;;5083193;28;20028;-65
2023/09/22 12:21:28;;;;;;;166.30;111.03;;;32.40;99.90;;;;;;5083192;28;20021;-66
2023/09/22 12:23:55;;;;;;;143.23;86.60;;;32.40;99.90;;;;;;5084632;28;20032;-66
2023/09/22 12:26:21;;;;;;;137.82;84.47;;;32.30;99.90;;;;;;5077101;28;20070;-65
2023/09/22 12:28:49;;;;;;;150.32;92.05;;;32.30;99.90;;;;;;5062987;28;20033;-66
2023/09/22 12:31:16;;;;;;;167.38;105.43;;;32.20;99.90;;;;;;5075796;28;20033;-64
2023/09/22 12:33:43;;;;;;;220.77;135.73;;;32.20;99.90;;;;;;5062397;28;20111;-66